Time;durP1;ratioP1;P1;durP2;ratioP2;P2;SDS_P1;SDS_P2;PMS_P1;PMS_P2;Temp;Humidity;BMP_temperature;BMP_pressure;BME280_temperature;BME280_humidity;BME280_pressure;Samples;Min_cycle;Max_cycle;Signal;HPM_P1;HPM_P2
2022/11/17 00:00:41;;;;;;;4.13;1.83;;;;;;;12.15;100.00;98151.09;8355636;28;20406;-49
2022/11/17 00:04:44;;;;;;;7.00;1.30;;;;;;;12.20;100.00;98143.19;8351886;28;20084;-51
2022/11/17 00:08:45;;;;;;;5.13;2.03;;;;;;;12.30;100.00;98135.47;8357743;28;20564;-51
2022/11/17 00:17:09;;;;;;;4.45;1.23;;;;;;;12.32;100.00;98125.28;8356800;28;20530;-52
2022/11/17 00:21:20;;;;;;;5.38;1.30;;;;;;;12.22;100.00;98119.44;8353547;28;20045;-49
2022/11/17 00:25:20;;;;;;;6.30;1.73;;;;;;;12.14;100.00;98106.13;8346283;28;20045;-49
2022/11/17 00:29:21;;;;;;;3.78;1.10;;;;;;;12.12;100.00;98106.31;8349981;28;20095;-50
2022/11/17 00:34:22;;;;;;;5.57;0.93;;;;;;;12.14;100.00;98084.44;8356192;28;20498;-50
2022/11/17 00:38:14;;;;;;;6.47;1.50;;;;;;;12.12;100.00;98092.78;8347151;28;20510;-53
2022/11/17 00:42:03;;;;;;;3.35;1.23;;;;;;;12.04;100.00;98073.22;8333672;28;20044;-53
2022/11/17 00:46:04;;;;;;;5.75;0.98;;;;;;;12.02;100.00;98076.13;8360000;28;20028;-49
2022/11/17 00:50:05;;;;;;;7.75;1.15;;;;;;;11.96;100.00;98049.06;8353360;28;20035;-51
2022/11/17 00:54:08;;;;;;;5.65;1.65;;;;;;;11.93;100.00;98056.53;8354547;28;20477;-52
2022/11/17 00:58:09;;;;;;;4.30;1.07;;;;;;;11.99;100.00;98043.22;8348811;28;20180;-50
2022/11/17 01:02:10;;;;;;;2.08;0.85;;;;;;;11.96;100.00;98043.63;8352650;28;20036;-49
2022/11/17 01:06:14;;;;;;;6.05;1.77;;;;;;;11.97;100.00;98039.88;8356098;28;20062;-51
2022/11/17 01:10:14;;;;;;;3.23;0.90;;;;;;;11.97;100.00;98020.91;8354003;28;20094;-50
2022/11/17 01:14:20;;;;;;;1.52;0.88;;;;;;;11.96;100.00;98027.41;8360463;28;20032;-51
2022/11/17 01:18:20;;;;;;;5.35;1.17;;;;;;;11.98;100.00;98025.31;8358503;28;20044;-50
2022/11/17 01:22:21;;;;;;;1.98;0.85;;;;;;;12.05;100.00;98020.72;8358522;28;20037;-53
2022/11/17 01:26:24;;;;;;;4.05;1.02;;;;;;;12.09;100.00;98013.81;8359410;28;20033;-50
2022/11/17 01:30:25;;;;;;;5.25;0.90;;;;;;;12.13;100.00;98006.97;8358540;28;20033;-51
2022/11/17 01:34:26;;;;;;;4.32;0.80;;;;;;;12.23;100.00;97996.50;8357440;28;20040;-50
2022/11/17 01:38:26;;;;;;;3.42;0.80;;;;;;;12.26;100.00;97996.91;8357903;28;20057;-50
2022/11/17 01:42:27;;;;;;;52.22;3.17;;;;;;;12.19;100.00;97992.53;8358304;28;20036;-50
2022/11/17 01:46:32;;;;;;;2.85;0.68;;;;;;;12.22;100.00;97989.41;8341861;28;20040;-50
2022/11/17 01:50:38;;;;;;;1.17;0.57;;;;;;;12.25;100.00;97967.31;8323818;28;20029;-52
2022/11/17 01:54:41;;;;;;;4.88;0.90;;;;;;;12.27;100.00;97967.94;8324960;28;20037;-50
2022/11/17 01:59:00;;;;;;;5.32;0.77;;;;;;;12.13;100.00;97958.22;8324584;28;20068;-50
2022/11/17 02:03:01;;;;;;;3.67;0.38;;;;;;;12.06;100.00;97962.81;8325121;28;20049;-50
2022/11/17 02:07:10;;;;;;;4.40;1.13;;;;;;;12.08;100.00;97950.72;8325144;28;20068;-49
2022/11/17 02:11:15;;;;;;;1.60;0.60;;;;;;;12.05;100.00;97956.56;8324701;28;20059;-50
2022/11/17 02:15:16;;;;;;;4.68;0.80;;;;;;;12.08;100.00;97948.03;8324428;28;20411;-51
2022/11/17 02:19:21;;;;;;;1.83;0.68;;;;;;;11.98;100.00;97931.38;8325442;28;20091;-50
2022/11/17 02:23:41;;;;;;;;;;;;;;;12.04;100.00;97910.75;8323795;28;20030;-50
2022/11/17 02:28:05;;;;;;;3.92;0.70;;;;;;;12.04;100.00;97902.63;8326710;28;20285;-51
2022/11/17 02:32:12;;;;;;;6.25;0.60;;;;;;;12.09;100.00;97900.09;8324325;28;20040;-53
2022/11/17 02:36:31;;;;;;;2.78;0.80;;;;;;;11.93;100.00;97894.09;8322492;28;20491;-50
2022/11/17 02:40:39;;;;;;;1.75;0.70;;;;;;;11.99;100.00;97889.72;8355044;28;20039;-49
2022/11/17 02:44:55;;;;;;;3.35;1.33;;;;;;;11.92;100.00;97886.19;8351113;28;20111;-50
2022/11/17 02:49:01;;;;;;;1.80;0.55;;;;;;;11.93;100.00;97880.56;8324296;28;20045;-50
2022/11/17 02:53:03;;;;;;;2.05;0.40;;;;;;;11.96;100.00;97875.78;8326655;28;20036;-49
2022/11/17 02:57:03;;;;;;;1.35;0.50;;;;;;;11.98;100.00;97868.28;8323897;28;20033;-49
2022/11/17 03:01:33;;;;;;;1.17;0.40;;;;;;;11.98;100.00;97852.03;8323524;28;20049;-49
2022/11/17 03:09:59;;;;;;;0.75;0.50;;;;;;;12.11;100.00;97838.44;8407853;27;20816;-48
2022/11/17 03:14:14;;;;;;;2.00;0.40;;;;;;;12.09;100.00;97860.31;8398310;28;20032;-52
2022/11/17 03:18:26;;;;;;;0.40;0.23;;;;;;;12.09;100.00;97852.19;8402216;28;20052;-50
2022/11/17 03:22:41;;;;;;;1.90;0.43;;;;;;;12.09;100.00;97837.81;8403055;28;20045;-48
2022/11/17 03:26:55;;;;;;;0.20;0.20;;;;;;;12.08;100.00;97847.00;8402711;28;20119;-52
2022/11/17 03:30:57;;;;;;;;;;;;;;;11.99;100.00;97832.88;8402505;27;20060;-49
2022/11/17 03:35:04;;;;;;;1.15;0.32;;;;;;;12.01;100.00;97840.78;8441665;27;19920;-50
2022/11/17 03:39:15;;;;;;;1.45;0.50;;;;;;;12.02;100.00;97826.19;8419371;27;20037;-51
2022/11/17 03:43:19;;;;;;;2.58;0.28;;;;;;;11.98;100.00;97814.13;8418081;27;20032;-51
2022/11/17 03:47:25;;;;;;;0.93;0.50;;;;;;;11.86;100.00;97813.97;8419442;27;20037;-50
2022/11/17 03:51:30;;;;;;;0.98;0.25;;;;;;;11.78;100.00;97798.78;8418456;27;20064;-51
2022/11/17 03:55:45;;;;;;;1.10;0.30;;;;;;;11.75;100.00;97801.13;8412998;28;20036;-50
2022/11/17 03:59:56;;;;;;;3.30;0.30;;;;;;;11.78;100.00;97796.09;8418694;28;20051;-51
2022/11/17 04:03:57;;;;;;;2.80;0.40;;;;;;;11.85;100.00;97777.97;8418324;28;20038;-50
2022/11/17 04:07:57;;;;;;;0.85;0.40;;;;;;;11.85;100.00;97788.78;8418635;28;20044;-51
2022/11/17 04:16:18;;;;;;;1.60;0.43;;;;;;;11.93;100.00;97770.63;8417443;28;20135;-50
2022/11/17 04:20:19;;;;;;;2.85;0.70;;;;;;;11.86;100.00;97785.03;8400673;28;20036;-51
2022/11/17 04:24:20;;;;;;;4.22;1.45;;;;;;;11.96;100.00;97781.88;8394484;28;20048;-51
2022/11/17 04:28:37;;;;;;;4.03;0.73;;;;;;;12.12;100.00;97772.41;8394221;28;20040;-50
2022/11/17 04:32:38;;;;;;;3.72;0.80;;;;;;;12.26;100.00;97763.16;8394596;28;20048;-50
2022/11/17 04:36:42;;;;;;;3.03;0.93;;;;;;;12.24;100.00;97770.66;8395301;28;20112;-53
2022/11/17 04:41:52;;;;;;;2.47;0.95;;;;;;;12.31;100.00;97768.72;8393709;28;20039;-53
2022/11/17 04:45:04;;;;;;;3.95;0.65;;;;;;;12.33;100.00;97759.34;8378375;28;20048;-50
2022/11/17 04:49:06;;;;;;;4.43;1.10;;;;;;;12.40;100.00;97753.88;8378291;28;20120;-51
2022/11/17 04:53:06;;;;;;;5.55;0.90;;;;;;;12.50;100.00;97749.63;8378259;28;20044;-50
2022/11/17 04:57:07;;;;;;;3.92;0.77;;;;;;;12.53;100.00;97753.78;8377788;28;20044;-50
2022/11/17 05:01:11;;;;;;;3.00;0.90;;;;;;;12.59;100.00;97744.78;8375922;28;20097;-50
2022/11/17 05:05:11;;;;;;;3.80;1.13;;;;;;;12.54;100.00;97740.03;8369870;28;20128;-50
2022/11/17 05:09:14;;;;;;;3.72;0.70;;;;;;;12.44;100.00;97741.56;8371960;28;20033;-50
2022/11/17 05:13:24;;;;;;;2.80;0.73;;;;;;;12.41;100.00;97739.28;8356652;28;20038;-50
2022/11/17 05:17:24;;;;;;;4.05;0.95;;;;;;;12.34;100.00;97744.75;8340640;28;20043;-52
2022/11/17 05:21:25;;;;;;;3.35;0.63;;;;;;;12.27;100.00;97745.84;8369900;28;20032;-51
2022/11/17 05:25:26;;;;;;;4.78;0.70;;;;;;;12.20;100.00;97747.78;8423557;28;20503;-51
2022/11/17 05:29:26;;;;;;;3.50;0.70;;;;;;;12.14;100.00;97756.78;8390955;28;20041;-52
2022/11/17 05:33:28;;;;;;;6.10;0.90;;;;;;;12.08;100.00;97754.94;8372942;28;20041;-50
2022/11/17 05:37:28;;;;;;;2.95;0.70;;;;;;;12.07;100.00;97764.91;8368095;28;20048;-51
2022/11/17 05:41:29;;;;;;;7.57;1.02;;;;;;;12.04;100.00;97783.50;8369709;28;20032;-49
2022/11/17 05:45:30;;;;;;;3.95;1.13;;;;;;;12.04;100.00;97787.00;8369922;28;20036;-50
2022/11/17 05:49:31;;;;;;;5.13;1.23;;;;;;;11.92;100.00;97787.94;8362371;28;20036;-50
2022/11/17 05:53:32;;;;;;;3.17;1.17;;;;;;;11.84;100.00;97789.00;8390325;28;20123;-52
2022/11/17 05:57:33;;;;;;;4.15;0.90;;;;;;;11.84;100.00;97795.22;8360570;28;20087;-50
2022/11/17 06:01:38;;;;;;;4.13;1.20;;;;;;;11.87;100.00;97813.75;8361818;28;20322;-51
2022/11/17 06:05:40;;;;;;;1.92;0.90;;;;;;;11.82;100.00;97791.94;8359877;28;20033;-54
2022/11/17 06:09:41;;;;;;;5.80;0.80;;;;;;;11.79;100.00;97816.72;8370683;28;20125;-54
2022/11/17 06:13:42;;;;;;;3.38;1.20;;;;;;;11.83;100.00;97828.75;8364062;28;20033;-55
2022/11/17 06:17:55;;;;;;;7.32;1.33;;;;;;;11.76;100.00;97822.56;8336379;28;20115;-53
2022/11/17 06:21:57;;;;;;;4.27;1.30;;;;;;;11.76;100.00;97825.25;8357443;28;20116;-54
2022/11/17 06:26:02;;;;;;;1.50;1.00;;;;;;;11.77;100.00;97817.94;8367496;28;20069;-54
2022/11/17 06:30:04;;;;;;;2.38;1.30;;;;;;;11.80;100.00;97818.38;8373610;28;20056;-53
2022/11/17 06:34:05;;;;;;;2.75;0.98;;;;;;;11.83;100.00;97807.13;8360419;28;20036;-55
2022/11/17 06:38:06;;;;;;;5.32;0.95;;;;;;;11.88;100.00;97804.59;8367615;28;20059;-52
2022/11/17 06:42:06;;;;;;;4.25;0.90;;;;;;;11.93;100.00;97804.78;8367093;28;20044;-54
2022/11/17 06:46:07;;;;;;;7.80;1.30;;;;;;;12.07;100.00;97807.44;8379723;28;20047;-53
2022/11/17 06:50:08;;;;;;;4.65;0.80;;;;;;;12.13;100.00;97801.97;8420579;28;20040;-51
2022/11/17 06:54:11;;;;;;;3.55;0.60;;;;;;;12.25;100.00;97807.53;8420921;28;20387;-51
2022/11/17 06:58:11;;;;;;;1.00;0.35;;;;;;;12.38;100.00;97804.75;8403670;28;20029;-52
2022/11/17 07:02:12;;;;;;;1.48;0.30;;;;;;;12.48;100.00;97816.78;8397778;28;20043;-50
2022/11/17 07:06:14;;;;;;;3.20;0.30;;;;;;;12.50;98.52;97824.69;8371047;28;20064;-51
2022/11/17 07:10:15;;;;;;;0.98;0.15;;;;;;;12.54;97.91;97831.31;8368999;28;20049;-51
2022/11/17 07:14:16;;;;;;;2.65;0.25;;;;;;;12.44;99.01;97847.22;8388537;28;20170;-52
2022/11/17 07:18:18;;;;;;;0.75;0.20;;;;;;;12.44;97.35;97841.81;8351376;28;20560;-52
2022/11/17 07:22:19;;;;;;;2.95;0.40;;;;;;;12.29;100.00;97854.81;8334227;28;20478;-51
2022/11/17 07:26:20;;;;;;;3.13;0.50;;;;;;;12.24;99.42;97862.75;8338201;28;20068;-52
2022/11/17 07:30:20;;;;;;;2.40;0.57;;;;;;;12.28;98.90;97880.22;8362894;28;20433;-53
2022/11/17 07:34:21;;;;;;;2.70;0.47;;;;;;;12.26;98.89;97882.34;8370663;28;20106;-54
2022/11/17 07:38:22;;;;;;;0.57;0.30;;;;;;;12.27;98.87;97889.41;8368720;28;20044;-50
2022/11/17 07:42:23;;;;;;;1.60;0.30;;;;;;;12.24;99.55;97897.94;8370270;28;20033;-50
2022/11/17 07:46:26;;;;;;;1.25;0.35;;;;;;;12.21;100.00;97906.50;8370938;28;20029;-51
2022/11/17 07:50:29;;;;;;;0.68;0.35;;;;;;;12.27;98.21;97911.91;8370534;28;20044;-53
2022/11/17 07:54:29;;;;;;;5.25;0.80;;;;;;;12.35;97.41;97903.53;8373095;28;20050;-52
2022/11/17 07:58:30;;;;;;;1.60;0.28;;;;;;;12.37;97.33;97908.72;8376184;28;20040;-51
2022/11/17 08:02:31;;;;;;;3.78;0.57;;;;;;;12.34;98.38;97914.56;8376248;28;20379;-52
2022/11/17 08:06:31;;;;;;;2.58;0.60;;;;;;;12.34;98.00;97920.00;8376289;28;20036;-51
2022/11/17 08:10:33;;;;;;;5.50;0.73;;;;;;;12.37;97.30;97923.09;8375933;28;20087;-50
2022/11/17 08:14:33;;;;;;;1.15;0.30;;;;;;;12.46;95.86;97927.25;8375919;28;20037;-51
2022/11/17 08:18:35;;;;;;;3.53;0.63;;;;;;;12.53;95.24;97943.47;8375295;28;20111;-55
2022/11/17 08:22:35;;;;;;;0.77;0.20;;;;;;;12.50;95.36;97943.91;8374169;28;20059;-51
2022/11/17 08:26:36;;;;;;;3.50;0.55;;;;;;;12.55;95.51;97961.19;8375480;28;20041;-52
2022/11/17 08:30:36;;;;;;;3.33;0.70;;;;;;;12.66;95.71;97957.78;8353845;28;20069;-51
2022/11/17 08:34:37;;;;;;;17.25;1.67;;;;;;;12.93;94.79;97961.19;8366784;28;20036;-52
2022/11/17 08:38:38;;;;;;;6.50;0.65;;;;;;;13.06;92.68;97966.56;8373936;28;20032;-55
2022/11/17 08:42:38;;;;;;;3.25;0.30;;;;;;;13.12;91.81;97968.41;8372823;28;20044;-54
2022/11/17 08:46:39;;;;;;;1.60;0.47;;;;;;;13.30;90.68;97968.47;8374906;28;20459;-51
2022/11/17 08:50:39;;;;;;;1.77;0.88;;;;;;;13.69;88.47;97971.69;8374938;28;20115;-53
2022/11/17 08:54:40;;;;;;;3.92;0.60;;;;;;;14.69;85.48;97976.72;8373742;28;20047;-51
2022/11/17 08:58:43;;;;;;;3.17;0.60;;;;;;;15.95;77.99;97977.34;8372480;28;20036;-54
2022/11/17 09:02:44;;;;;;;2.30;0.70;;;;;;;17.19;73.51;97987.41;8372839;28;20037;-54
2022/11/17 09:06:45;;;;;;;1.77;0.38;;;;;;;16.24;74.04;97988.09;8373935;28;20043;-51
2022/11/17 09:10:48;;;;;;;1.75;0.30;;;;;;;15.02;78.28;97988.00;8372951;28;20033;-52
2022/11/17 09:14:49;;;;;;;2.45;0.30;;;;;;;14.47;80.20;98005.44;8374182;28;20516;-53
2022/11/17 09:18:55;;;;;;;2.03;0.20;;;;;;;14.03;81.47;98008.34;8373117;28;20457;-53
2022/11/17 09:22:59;;;;;;;4.43;0.30;;;;;;;13.94;82.29;98001.56;8373162;28;20752;-51
2022/11/17 09:27:01;;;;;;;1.98;0.65;;;;;;;13.95;81.47;97995.06;8373882;28;20089;-53
2022/11/17 09:31:07;;;;;;;1.50;0.32;;;;;;;14.36;80.73;98008.88;8371514;28;20045;-51
2022/11/17 09:35:08;;;;;;;1.13;0.20;;;;;;;14.46;79.33;98024.69;8372545;28;20573;-54
2022/11/17 09:39:08;;;;;;;0.85;0.30;;;;;;;14.55;79.34;98029.56;8371660;28;20036;-52
2022/11/17 09:43:28;;;;;;;2.13;0.40;;;;;;;16.35;76.02;98016.44;8371670;28;20040;-52
2022/11/17 09:47:53;;;;;;;6.95;0.60;;;;;;;16.44;73.24;98023.22;8371351;28;20041;-51
2022/11/17 09:51:57;;;;;;;6.00;1.08;;;;;;;15.27;77.49;98036.81;8372680;28;20395;-55
2022/11/17 09:56:02;;;;;;;2.65;0.50;;;;;;;14.57;80.03;98054.66;8371804;28;20033;-52
2022/11/17 10:00:17;;;;;;;3.75;0.50;;;;;;;14.38;80.29;98049.44;8359167;28;20063;-54
2022/11/17 10:04:18;;;;;;;3.08;0.40;;;;;;;14.26;82.74;98052.06;8346218;28;20037;-54
2022/11/17 10:08:28;;;;;;;3.90;0.73;;;;;;;14.09;82.63;98061.78;8369576;28;20045;-55
2022/11/17 10:12:40;;;;;;;4.05;0.63;;;;;;;13.94;82.47;98064.03;8372386;28;20033;-55
2022/11/17 10:16:57;;;;;;;2.95;0.50;;;;;;;13.86;83.83;98061.59;8371569;28;20398;-51
2022/11/17 10:20:57;;;;;;;1.88;0.32;;;;;;;13.96;80.83;98067.34;8371479;28;20120;-52
2022/11/17 10:24:58;;;;;;;1.05;0.30;;;;;;;14.09;80.91;98078.09;8371360;28;20040;-52
2022/11/17 10:29:07;;;;;;;1.98;0.35;;;;;;;14.24;79.91;98075.09;8371455;28;20069;-51
2022/11/17 10:33:12;;;;;;;7.05;0.82;;;;;;;14.08;80.98;98084.59;8366728;28;20063;-51
2022/11/17 10:41:39;;;;;;;5.32;0.43;;;;;;;13.95;79.11;98082.00;8416813;27;20428;-53
2022/11/17 10:45:46;;;;;;;2.97;0.60;;;;;;;14.01;79.74;98091.97;8416318;28;20036;-50
2022/11/17 10:50:03;;;;;;;1.67;0.50;;;;;;;14.05;80.33;98093.19;8415467;28;20040;-52
2022/11/17 10:54:20;;;;;;;1.63;0.40;;;;;;;14.10;78.50;98090.63;8416116;28;20047;-52
2022/11/17 10:58:25;;;;;;;8.80;0.82;;;;;;;14.20;76.66;98090.13;8415392;28;20420;-50
2022/11/17 11:02:38;;;;;;;2.17;0.50;;;;;;;14.26;77.07;98083.81;8414752;28;20109;-50
2022/11/17 11:06:38;;;;;;;3.88;0.40;;;;;;;14.41;75.54;98098.75;8392690;28;20060;-50
2022/11/17 11:10:40;;;;;;;4.13;0.40;;;;;;;14.84;74.70;98101.41;8382548;28;20040;-52
2022/11/17 11:14:44;;;;;;;2.25;0.50;;;;;;;14.76;74.58;98101.75;8414559;28;20075;-51
2022/11/17 11:18:48;;;;;;;;;;;;;;;14.58;74.85;98115.31;8414288;28;20037;-53
2022/11/17 11:23:17;;;;;;;2.60;0.40;;;;;;;14.46;75.39;98130.69;8409458;28;19920;-54
2022/11/17 11:27:48;;;;;;;1.90;0.22;;;;;;;14.21;74.72;98122.50;8405152;28;20040;-52
2022/11/17 11:32:16;;;;;;;2.28;0.60;;;;;;;14.10;77.42;98128.69;8403700;28;20276;-52
2022/11/17 11:36:30;;;;;;;5.07;0.60;;;;;;;14.19;78.22;98130.06;8394188;28;20478;-51
2022/11/17 11:40:36;;;;;;;6.50;0.40;;;;;;;14.49;76.84;98135.69;8411088;28;20036;-53
2022/11/17 11:45:11;;;;;;;2.30;0.40;;;;;;;14.64;72.90;98109.78;8413246;28;20044;-52
2022/11/17 11:49:40;;;;;;;2.83;0.30;;;;;;;14.74;75.17;98126.44;8391652;28;20066;-54
2022/11/17 11:58:20;;;;;;;3.15;0.55;;;;;;;15.32;70.72;98130.38;8400965;27;20462;-50
2022/11/17 12:02:50;;;;;;;4.25;0.93;;;;;;;15.37;71.17;98141.41;8388538;27;20041;-53
2022/11/17 12:07:00;;;;;;;3.42;0.73;;;;;;;15.34;71.80;98133.66;8415752;27;20048;-52
2022/11/17 12:12:12;;;;;;;1.70;0.60;;;;;;;15.45;70.52;98134.81;8380163;28;20036;-53
2022/11/17 12:15:33;;;;;;;8.60;3.35;;;;;;;15.07;71.30;98132.31;8348539;28;20418;-51
2022/11/17 12:19:52;;;;;;;1.58;0.50;;;;;;;14.94;72.37;98120.75;8380936;28;20510;-52
2022/11/17 12:24:07;;;;;;;2.38;1.00;;;;;;;14.94;72.47;98137.09;8320967;28;20033;-51
2022/11/17 12:28:34;;;;;;;4.80;1.85;;;;;;;14.93;73.51;98136.28;8372729;28;20033;-53
2022/11/17 12:32:51;;;;;;;4.60;0.60;;;;;;;15.38;73.49;98124.03;8402895;27;20064;-51
2022/11/17 12:37:16;;;;;;;3.67;0.63;;;;;;;15.39;73.03;98130.28;8348909;28;20040;-51
2022/11/17 12:41:36;;;;;;;;;;;;;;;15.20;71.88;98132.19;8350559;28;20055;-51
2022/11/17 12:46:02;;;;;;;2.80;0.55;;;;;;;15.08;73.37;98128.56;8346037;28;20382;-55
2022/11/17 12:50:40;;;;;;;6.30;1.00;;;;;;;14.87;75.09;98134.47;8348108;28;20056;-53
2022/11/17 12:55:00;;;;;;;5.60;0.38;;;;;;;14.81;73.99;98138.06;8349081;28;20041;-53
2022/11/17 12:59:41;;;;;;;4.28;0.57;;;;;;;14.87;74.25;98123.56;8370694;27;20044;-54
2022/11/17 13:03:51;;;;;;;2.80;0.40;;;;;;;14.83;73.12;98129.69;8346637;28;20033;-54
2022/11/17 13:12:27;;;;;;;5.70;0.40;;;;;;;15.34;74.47;98130.13;8347685;27;20419;-53
2022/11/17 13:16:28;;;;;;;6.50;0.50;;;;;;;15.41;74.20;98136.34;8347705;28;20033;-55
2022/11/17 13:20:29;;;;;;;2.47;0.43;;;;;;;15.68;73.81;98135.75;8349205;28;20047;-51
2022/11/17 13:24:33;;;;;;;2.70;0.70;;;;;;;15.76;73.24;98141.97;8348717;28;20037;-53
2022/11/17 13:28:34;;;;;;;3.23;0.53;;;;;;;15.99;71.99;98147.47;8348656;28;20041;-55
2022/11/17 13:32:38;;;;;;;1.98;0.70;;;;;;;15.77;73.75;98149.91;8349029;28;20275;-51
2022/11/17 13:36:59;;;;;;;3.10;0.40;;;;;;;15.53;74.70;98142.69;8346667;28;20041;-54
2022/11/17 13:41:01;;;;;;;5.57;0.70;;;;;;;15.41;74.14;98139.88;8315750;28;20029;-54
2022/11/17 13:45:05;;;;;;;3.30;0.60;;;;;;;15.48;71.76;98146.09;8317070;28;20056;-52
2022/11/17 13:49:33;;;;;;;2.13;0.43;;;;;;;15.64;73.33;98160.94;8347917;28;20107;-54
2022/11/17 13:53:34;;;;;;;1.38;0.30;;;;;;;15.89;72.93;98141.75;8349797;28;20045;-51
2022/11/17 13:57:36;;;;;;;2.97;0.47;;;;;;;15.90;72.91;98159.75;8346567;28;20075;-55
2022/11/17 14:01:36;;;;;;;3.63;0.75;;;;;;;15.63;74.06;98162.88;8319434;28;20511;-52
2022/11/17 14:05:53;;;;;;;2.80;0.70;;;;;;;15.58;72.47;98157.28;8334746;28;20473;-54
2022/11/17 14:10:26;;;;;;;5.32;0.60;;;;;;;15.47;71.71;98155.31;8343678;28;20052;-53
2022/11/17 14:18:41;;;;;;;4.90;0.85;;;;;;;15.40;71.76;98157.28;8405114;27;20403;-51
2022/11/17 14:23:17;;;;;;;4.85;0.70;;;;;;;15.35;74.35;98150.84;8392717;27;20161;-53
2022/11/17 14:27:36;;;;;;;2.58;0.45;;;;;;;15.23;76.02;98158.13;8364028;28;20078;-54
2022/11/17 14:31:37;;;;;;;4.55;0.40;;;;;;;15.14;75.67;98165.75;8395480;27;20044;-55
2022/11/17 14:35:38;;;;;;;1.95;0.50;;;;;;;15.05;74.58;98166.28;8395317;27;20297;-55
2022/11/17 14:39:39;;;;;;;3.80;0.73;;;;;;;14.95;76.07;98166.78;8394487;27;20413;-52
2022/11/17 14:43:40;;;;;;;3.97;0.68;;;;;;;14.75;77.61;98173.50;8392738;27;20043;-53
2022/11/17 14:47:41;;;;;;;3.35;0.70;;;;;;;14.69;77.44;98172.50;8393711;28;20564;-52
2022/11/17 14:51:41;;;;;;;5.82;1.45;;;;;;;14.61;77.07;98180.94;8391981;27;20036;-54
2022/11/17 14:55:42;;;;;;;4.38;0.73;;;;;;;14.55;77.46;98179.09;8394277;27;20056;-54
2022/11/17 14:59:43;;;;;;;4.78;0.80;;;;;;;14.44;78.22;98185.28;8380251;27;21979;-52
2022/11/17 15:03:44;;;;;;;2.20;0.47;;;;;;;14.42;78.83;98194.72;8396195;27;20033;-52
2022/11/17 15:07:46;;;;;;;2.28;0.63;;;;;;;14.45;78.07;98203.25;8393766;27;20043;-55
2022/11/17 15:11:47;;;;;;;4.60;0.57;;;;;;;14.45;77.72;98192.38;8396155;27;20043;-55
2022/11/17 15:15:48;;;;;;;3.63;0.80;;;;;;;14.38;78.39;98196.19;8382565;27;20036;-55
2022/11/17 15:19:49;;;;;;;5.75;0.90;;;;;;;14.26;78.72;98200.69;8411966;28;20044;-55
2022/11/17 15:23:49;;;;;;;3.05;0.68;;;;;;;14.15;79.14;98207.63;8401377;28;20230;-55
2022/11/17 15:27:51;;;;;;;3.42;0.80;;;;;;;14.00;80.60;98212.53;8363689;27;20357;-54
2022/11/17 15:31:52;;;;;;;5.32;0.93;;;;;;;13.89;81.25;98213.25;8340535;28;20037;-56
2022/11/17 15:36:02;;;;;;;4.43;0.88;;;;;;;13.79;82.25;98218.31;8375067;27;20059;-55
2022/11/17 15:40:03;;;;;;;5.90;0.90;;;;;;;13.67;82.70;98220.84;8347867;28;20093;-55
2022/11/17 15:44:04;;;;;;;3.00;1.17;;;;;;;13.60;82.82;98224.66;8342956;28;20044;-55
2022/11/17 15:48:05;;;;;;;4.13;0.82;;;;;;;13.54;83.35;98222.78;8360920;28;20119;-53
2022/11/17 15:52:06;;;;;;;4.15;0.80;;;;;;;13.46;84.29;98228.47;8355792;28;20033;-55
2022/11/17 15:56:15;;;;;;;2.90;0.75;;;;;;;13.30;85.78;98237.09;8372983;28;20036;-54
2022/11/17 16:00:16;;;;;;;3.45;0.90;;;;;;;13.15;86.23;98247.38;8371235;28;20128;-55
2022/11/17 16:04:17;;;;;;;7.55;1.20;;;;;;;13.14;86.63;98251.09;8370610;28;20190;-53
2022/11/17 16:08:18;;;;;;;4.13;0.98;;;;;;;13.16;86.51;98254.44;8357067;28;20042;-55
2022/11/17 16:12:18;;;;;;;5.63;1.25;;;;;;;12.98;87.40;98256.94;8360269;28;20071;-55
2022/11/17 16:16:19;;;;;;;6.28;1.15;;;;;;;12.77;88.62;98249.88;8378905;28;20059;-55
2022/11/17 16:20:20;;;;;;;5.00;1.50;;;;;;;12.70;89.17;98256.34;8374561;28;20391;-53
2022/11/17 16:24:20;;;;;;;9.45;3.38;;;;;;;12.67;89.34;98264.91;8374113;28;20562;-52
2022/11/17 16:28:21;;;;;;;7.38;2.35;;;;;;;12.58;89.51;98267.00;8366018;28;20092;-54
2022/11/17 16:32:22;;;;;;;13.15;7.03;;;;;;;12.47;90.20;98274.91;8358931;28;20059;-53
2022/11/17 16:36:26;;;;;;;7.03;2.20;;;;;;;12.49;89.77;98279.09;8377733;28;20128;-53
2022/11/17 16:40:27;;;;;;;3.27;0.90;;;;;;;12.54;89.24;98278.47;8383920;28;20414;-52
2022/11/17 16:44:28;;;;;;;2.58;0.75;;;;;;;12.63;88.65;98285.34;8377876;28;20425;-54
2022/11/17 16:48:32;;;;;;;4.28;1.38;;;;;;;12.57;88.81;98275.34;8368406;28;20128;-54
2022/11/17 16:52:33;;;;;;;2.38;0.65;;;;;;;12.56;89.61;98270.97;8369171;28;20037;-54
2022/11/17 16:56:34;;;;;;;1.55;0.60;;;;;;;12.66;89.38;98277.63;8368660;28;20510;-51
2022/11/17 17:00:35;;;;;;;5.80;0.80;;;;;;;12.74;88.71;98276.56;8368651;28;20914;-54
2022/11/17 17:04:35;;;;;;;3.17;0.43;;;;;;;12.70;89.13;98278.03;8352030;28;20043;-54
2022/11/17 17:08:36;;;;;;;2.83;0.88;;;;;;;12.62;90.21;98272.81;8336497;28;20075;-51
2022/11/17 17:12:37;;;;;;;3.38;0.88;;;;;;;12.63;90.01;98269.09;8365605;28;20060;-53
2022/11/17 17:16:38;;;;;;;3.30;1.05;;;;;;;12.55;90.47;98278.25;8367520;28;20041;-54
2022/11/17 17:20:39;;;;;;;3.38;0.77;;;;;;;12.50;90.94;98285.34;8339528;28;20391;-53
2022/11/17 17:24:40;;;;;;;2.35;1.10;;;;;;;12.37;91.57;98285.31;8360718;28;20036;-55
2022/11/17 17:28:42;;;;;;;3.70;1.10;;;;;;;12.32;92.25;98295.94;8356518;28;20048;-53
2022/11/17 17:32:43;;;;;;;2.92;1.00;;;;;;;12.23;92.84;98299.88;8364240;28;20502;-54
2022/11/17 17:36:43;;;;;;;3.28;1.10;;;;;;;12.13;94.14;98304.88;8378165;28;20457;-54
2022/11/17 17:40:44;;;;;;;5.03;1.50;;;;;;;11.93;95.86;98318.34;8370336;28;20040;-55
2022/11/17 17:44:45;;;;;;;5.53;1.23;;;;;;;11.65;97.93;98313.00;8369892;28;20032;-52
2022/11/17 17:48:45;;;;;;;4.22;1.30;;;;;;;11.49;99.47;98324.13;8368424;28;20055;-54
2022/11/17 17:52:46;;;;;;;5.18;1.35;;;;;;;11.37;100.00;98328.44;8366767;28;20090;-52
2022/11/17 17:56:47;;;;;;;5.93;2.00;;;;;;;11.28;100.00;98331.47;8346340;28;20048;-56
2022/11/17 18:00:49;;;;;;;4.97;1.35;;;;;;;11.23;100.00;98329.38;8341869;28;20187;-52
2022/11/17 18:04:49;;;;;;;5.25;1.85;;;;;;;11.15;100.00;98343.06;8347456;28;20560;-51
2022/11/17 18:08:50;;;;;;;9.15;2.75;;;;;;;11.02;100.00;98339.44;8363968;28;20375;-52
2022/11/17 18:12:51;;;;;;;8.63;2.50;;;;;;;10.94;100.00;98351.22;8359010;28;20036;-55
2022/11/17 18:16:52;;;;;;;5.38;2.53;;;;;;;10.82;100.00;98347.38;8358902;28;20345;-55
2022/11/17 18:20:59;;;;;;;7.55;2.72;;;;;;;10.71;100.00;98350.63;8381555;28;20536;-52
2022/11/17 18:24:59;;;;;;;8.70;2.78;;;;;;;10.67;100.00;98349.31;8356451;28;20509;-52
2022/11/17 18:29:03;;;;;;;6.05;2.00;;;;;;;10.74;100.00;98355.59;8379804;28;20406;-51
2022/11/17 18:33:04;;;;;;;5.13;2.28;;;;;;;10.68;100.00;98367.22;8381675;28;20036;-51
2022/11/17 18:37:05;;;;;;;11.30;3.95;;;;;;;10.64;100.00;98378.63;8385040;28;20638;-51
2022/11/17 18:41:08;;;;;;;6.75;3.83;;;;;;;10.55;100.00;98380.56;8381282;28;20064;-51
2022/11/17 18:45:08;;;;;;;7.70;5.10;;;;;;;10.59;100.00;98379.19;8377812;28;20092;-51
2022/11/17 18:49:09;;;;;;;8.25;4.03;;;;;;;10.65;100.00;98377.56;8382610;28;20063;-54
2022/11/17 18:53:10;;;;;;;7.93;4.10;;;;;;;10.61;100.00;98385.22;8383173;28;20417;-51
2022/11/17 18:57:11;;;;;;;5.68;3.47;;;;;;;10.57;100.00;98381.25;8371836;28;20109;-52
2022/11/17 19:01:14;;;;;;;7.10;3.83;;;;;;;10.52;100.00;98390.97;8379088;28;20036;-52
2022/11/17 19:05:15;;;;;;;6.95;2.92;;;;;;;10.57;100.00;98385.78;8369006;28;20036;-54
2022/11/17 19:09:16;;;;;;;6.30;3.58;;;;;;;10.58;100.00;98393.69;8389924;28;20040;-52
2022/11/17 19:13:17;;;;;;;7.95;3.70;;;;;;;10.55;100.00;98399.50;8388135;28;20040;-51
2022/11/17 19:17:18;;;;;;;6.97;3.10;;;;;;;10.59;100.00;98400.81;8389271;28;20118;-54
2022/11/17 19:21:24;;;;;;;9.27;2.65;;;;;;;10.59;100.00;98394.56;8392255;28;20581;-51
2022/11/17 19:25:24;;;;;;;9.00;4.70;;;;;;;10.56;100.00;98403.88;8393097;28;20032;-54
2022/11/17 19:29:25;;;;;;;9.43;4.38;;;;;;;10.59;100.00;98408.91;8393921;28;20086;-52
2022/11/17 19:33:28;;;;;;;4.38;2.25;;;;;;;10.57;100.00;98408.25;8393341;28;20597;-53
2022/11/17 19:37:29;;;;;;;7.10;2.88;;;;;;;10.67;100.00;98416.88;8386224;28;20040;-53